Time;durP1;ratioP1;P1;durP2;ratioP2;P2;SDS_P1;SDS_P2;PMS_P1;PMS_P2;Temp;Humidity;BMP_temperature;BMP_pressure;BME280_temperature;BME280_humidity;BME280_pressure;Samples;Min_cycle;Max_cycle;Signal;HPM_P1;HPM_P2
2021/01/23 00:01:47;;;;;;;21.42;8.88;;;;;;;-145.48;100.00;59605.97;6239716;23;20091;-80
2021/01/23 00:04:12;;;;;;;12.48;7.30;;;;;;;-145.48;100.00;59605.97;6246056;22;20030;-80
2021/01/23 00:06:37;;;;;;;18.33;9.77;;;;;;;-145.48;100.00;59605.97;6244987;23;20068;-80
2021/01/23 00:09:03;;;;;;;18.77;7.25;;;;;;;-145.48;100.00;59605.97;6245852;23;20059;-80
2021/01/23 00:11:28;;;;;;;16.60;7.43;;;;;;;-145.48;100.00;59605.97;6245190;23;20079;-80
2021/01/23 00:13:53;;;;;;;26.95;8.27;;;;;;;-145.48;100.00;59605.97;6245347;23;20057;-80
2021/01/23 00:16:19;;;;;;;16.77;9.02;;;;;;;-145.48;100.00;59605.97;6219485;23;20004;-81
2021/01/23 00:18:44;;;;;;;15.60;7.65;;;;;;;-145.48;100.00;59605.97;6217410;23;20088;-79
2021/01/23 00:21:09;;;;;;;14.23;6.78;;;;;;;-145.48;100.00;59605.97;6246520;23;20004;-79
2021/01/23 00:23:35;;;;;;;23.40;8.73;;;;;;;-145.48;100.00;59605.97;6220996;23;20004;-79
2021/01/23 00:26:01;;;;;;;14.00;7.25;;;;;;;-145.48;100.00;59605.97;6248793;23;20082;-80
2021/01/23 00:28:26;;;;;;;16.48;8.38;;;;;;;-145.48;100.00;59605.97;6221435;23;20122;-80
2021/01/23 00:30:51;;;;;;;13.80;7.65;;;;;;;-145.48;100.00;59605.97;6220777;23;20017;-80
2021/01/23 00:33:16;;;;;;;13.80;6.88;;;;;;;-145.48;100.00;59605.97;6221479;23;20093;-80
2021/01/23 00:35:42;;;;;;;17.20;8.35;;;;;;;-145.48;100.00;59605.97;6241774;23;20505;-80
2021/01/23 00:38:07;;;;;;;19.48;7.35;;;;;;;-145.48;100.00;59605.97;6245031;23;20000;-80
2021/01/23 00:40:32;;;;;;;16.02;8.18;;;;;;;-145.48;100.00;59605.97;6219375;23;20010;-80
2021/01/23 00:42:57;;;;;;;11.77;7.78;;;;;;;-145.48;100.00;59605.97;6245644;23;20058;-79
2021/01/23 00:45:23;;;;;;;18.35;7.15;;;;;;;-145.48;100.00;59605.97;6246576;23;20327;-80
2021/01/23 00:47:48;;;;;;;17.42;8.70;;;;;;;-145.48;100.00;59605.97;6244960;23;20054;-80
2021/01/23 00:50:13;;;;;;;20.67;9.23;;;;;;;-145.48;100.00;59605.97;6244187;23;20000;-80
2021/01/23 00:52:39;;;;;;;16.85;8.52;;;;;;;-145.48;100.00;59605.97;6245721;23;20004;-79
2021/01/23 00:55:05;;;;;;;18.20;8.82;;;;;;;-145.48;100.00;59605.97;6245368;23;20526;-80
2021/01/23 00:57:30;;;;;;;15.10;8.10;;;;;;;-145.48;100.00;59605.97;6246184;23;20799;-80
2021/01/23 00:59:55;;;;;;;20.30;8.32;;;;;;;-145.48;100.00;59605.97;6245915;23;20019;-80
2021/01/23 01:02:21;;;;;;;19.42;9.32;;;;;;;-145.48;100.00;59605.97;6219116;23;20008;-79
2021/01/23 01:04:46;;;;;;;21.08;8.60;;;;;;;-145.48;100.00;59605.97;6252498;22;20012;-81
2021/01/23 01:07:11;;;;;;;19.55;8.98;;;;;;;-145.48;100.00;59605.97;6247052;23;20407;-80
2021/01/23 01:09:36;;;;;;;20.35;9.10;;;;;;;-145.48;100.00;59605.97;6246373;23;20000;-79
2021/01/23 01:12:02;;;;;;;18.38;8.60;;;;;;;-145.48;100.00;59605.97;6245834;23;20008;-79
2021/01/23 01:14:27;;;;;;;18.67;9.40;;;;;;;-145.48;100.00;59605.97;6222741;23;20008;-80
2021/01/23 01:16:52;;;;;;;17.33;8.82;;;;;;;-145.48;100.00;59605.97;6246438;23;20008;-80
2021/01/23 01:19:18;;;;;;;19.95;8.70;;;;;;;-145.48;100.00;59605.97;6245563;23;20357;-80
2021/01/23 01:21:43;;;;;;;17.75;9.43;;;;;;;-145.48;100.00;59605.97;6244001;23;20000;-80
2021/01/23 01:24:09;;;;;;;19.90;8.73;;;;;;;-145.48;100.00;59605.97;6244630;23;20306;-80
2021/01/23 01:26:34;;;;;;;17.35;9.35;;;;;;;-145.48;100.00;59605.97;6243916;23;20323;-79
2021/01/23 01:28:59;;;;;;;15.23;8.82;;;;;;;-145.48;100.00;59605.97;6242777;23;20075;-80
2021/01/23 01:31:24;;;;;;;18.60;10.70;;;;;;;-145.48;100.00;59605.97;6242639;23;20012;-79
2021/01/23 01:33:50;;;;;;;29.00;10.65;;;;;;;-145.48;100.00;59605.97;6243405;23;20004;-79
2021/01/23 01:36:15;;;;;;;19.90;9.38;;;;;;;-145.48;100.00;59605.97;6246373;23;20016;-80
2021/01/23 01:38:41;;;;;;;23.35;9.60;;;;;;;-145.48;100.00;59605.97;6249351;23;20012;-80
2021/01/23 01:41:06;;;;;;;18.25;10.55;;;;;;;-145.48;100.00;59605.97;6218191;23;20461;-79
2021/01/23 01:43:32;;;;;;;18.80;10.18;;;;;;;-145.48;100.00;59605.97;6244673;23;20000;-79
2021/01/23 01:45:57;;;;;;;15.57;10.82;;;;;;;-145.48;100.00;59605.97;6216219;23;20095;-79
2021/01/23 01:48:23;;;;;;;17.85;9.77;;;;;;;-145.48;100.00;59605.97;6216283;23;20007;-79
2021/01/23 01:50:51;;;;;;;18.17;9.55;;;;;;;-145.48;100.00;59605.97;6215535;23;19999;-79
2021/01/23 01:53:21;;;;;;;16.80;9.50;;;;;;;-145.48;100.00;59605.97;6245527;23;20014;-79
2021/01/23 01:55:47;;;;;;;25.40;9.55;;;;;;;-145.48;100.00;59605.97;6244801;23;20012;-79
2021/01/23 01:58:12;;;;;;;21.38;9.68;;;;;;;-145.48;100.00;59605.97;6219114;23;20462;-79
2021/01/23 02:00:38;;;;;;;17.58;9.60;;;;;;;-145.48;100.00;59605.97;6246011;23;20023;-79
2021/01/23 02:03:15;;;;;;;24.60;9.85;;;;;;;-145.48;100.00;59605.97;6246494;23;20008;-80
2021/01/23 02:05:54;;;;;;;20.17;10.50;;;;;;;-145.48;100.00;59605.97;6244976;23;20358;-80
2021/01/23 02:08:29;;;;;;;18.13;9.90;;;;;;;-145.48;100.00;59605.97;6243668;23;19996;-80
2021/01/23 02:11:13;;;;;;;17.08;9.50;;;;;;;-145.48;100.00;59605.97;6219511;23;20004;-80
2021/01/23 02:13:54;;;;;;;16.70;9.13;;;;;;;-145.48;100.00;59605.97;6218993;23;20015;-79
2021/01/23 02:16:25;;;;;;;16.50;9.73;;;;;;;-145.48;100.00;59605.97;6243211;23;20000;-79
2021/01/23 02:19:09;;;;;;;15.68;9.57;;;;;;;-145.48;100.00;59605.97;6241898;23;20414;-79
2021/01/23 02:21:49;;;;;;;15.73;9.30;;;;;;;-145.48;100.00;59605.97;6214052;23;20316;-79
2021/01/23 02:24:20;;;;;;;23.75;10.05;;;;;;;-145.48;100.00;59605.97;6215233;23;20008;-80
2021/01/23 02:26:58;;;;;;;18.33;9.77;;;;;;;-145.48;100.00;59605.97;6242006;23;20012;-79
2021/01/23 02:29:57;;;;;;;16.23;9.10;;;;;;;-145.48;100.00;59605.97;6242515;23;20008;-79
2021/01/23 02:32:23;;;;;;;17.73;9.63;;;;;;;-145.48;100.00;59605.97;6242409;23;20004;-79
2021/01/23 02:34:50;;;;;;;27.17;10.65;;;;;;;-145.48;100.00;59605.97;6243116;23;20414;-79
2021/01/23 02:37:17;;;;;;;24.05;10.35;;;;;;;-145.48;100.00;59605.97;6215722;23;20008;-79
2021/01/23 02:39:43;;;;;;;18.25;9.75;;;;;;;-145.48;100.00;59605.97;6242519;23;20004;-80
2021/01/23 02:42:08;;;;;;;16.80;9.82;;;;;;;-145.48;100.00;59605.97;6242811;23;20014;-79
2021/01/23 02:44:34;;;;;;;19.20;9.70;;;;;;;-145.48;100.00;59605.97;6243152;23;20397;-79
2021/01/23 02:46:59;;;;;;;18.90;9.95;;;;;;;-145.48;100.00;59605.97;6242925;23;20011;-80
2021/01/23 02:49:25;;;;;;;16.75;10.40;;;;;;;-145.48;100.00;59605.97;6242215;23;20060;-80
2021/01/23 02:51:50;;;;;;;20.33;10.50;;;;;;;-145.48;100.00;59605.97;6242744;23;20030;-80
2021/01/23 02:54:26;;;;;;;17.50;10.07;;;;;;;-145.48;100.00;59605.97;6242959;23;20071;-80
2021/01/23 02:56:53;;;;;;;15.25;9.60;;;;;;;-145.48;100.00;59605.97;6214949;23;20719;-79
2021/01/23 02:59:21;;;;;;;15.95;9.77;;;;;;;-145.48;100.00;59605.97;6243804;23;20004;-80
2021/01/23 03:01:49;;;;;;;19.80;10.32;;;;;;;-145.48;100.00;59605.97;6242574;23;20011;-80
2021/01/23 03:04:15;;;;;;;18.25;10.32;;;;;;;-145.48;100.00;59605.97;6242504;22;20013;-80
2021/01/23 03:06:41;;;;;;;16.77;9.43;;;;;;;-145.48;100.00;59605.97;6243880;23;20015;-80
2021/01/23 03:09:24;;;;;;;15.73;10.02;;;;;;;-145.48;100.00;59605.97;6243866;23;20007;-80
2021/01/23 03:11:50;;;;;;;17.20;9.80;;;;;;;-145.48;100.00;59605.97;6242582;23;20023;-80
2021/01/23 03:14:16;;;;;;;13.80;9.27;;;;;;;-145.48;100.00;59605.97;6242916;23;20018;-80
2021/01/23 03:16:46;;;;;;;18.38;9.95;;;;;;;-145.48;100.00;59605.97;6242446;23;20007;-80
2021/01/23 03:19:11;;;;;;;15.07;9.65;;;;;;;-145.48;100.00;59605.97;6216858;23;20012;-79
2021/01/23 03:21:37;;;;;;;17.05;9.70;;;;;;;-145.48;100.00;59605.97;6244592;23;20007;-79
2021/01/23 03:24:02;;;;;;;16.05;10.05;;;;;;;-145.48;100.00;59605.97;6247851;23;20035;-80
2021/01/23 03:26:27;;;;;;;15.10;10.35;;;;;;;-145.48;100.00;59605.97;6248787;23;19996;-81
2021/01/23 03:28:53;;;;;;;16.20;9.38;;;;;;;-145.48;100.00;59605.97;6252393;23;20024;-80
2021/01/23 03:31:18;;;;;;;16.90;10.32;;;;;;;-145.48;100.00;59605.97;6247662;23;20000;-80
2021/01/23 03:33:43;;;;;;;22.42;10.75;;;;;;;-145.48;100.00;59605.97;6247190;23;20058;-79
2021/01/23 03:36:08;;;;;;;20.15;11.02;;;;;;;-145.48;100.00;59605.97;6243546;23;20024;-79
2021/01/23 03:38:34;;;;;;;21.80;10.63;;;;;;;-145.48;100.00;59605.97;6245233;23;20011;-81
2021/01/23 03:40:59;;;;;;;17.00;9.93;;;;;;;-145.48;100.00;59605.97;6243803;23;20004;-80
2021/01/23 03:43:24;;;;;;;16.15;9.80;;;;;;;-145.48;100.00;59605.97;6243692;23;20039;-80
2021/01/23 03:45:50;;;;;;;20.17;9.85;;;;;;;-145.48;100.00;59605.97;6242678;23;20004;-80
2021/01/23 03:48:21;;;;;;;15.23;8.73;;;;;;;-145.48;100.00;59605.97;6242794;23;20015;-80
2021/01/23 03:50:46;;;;;;;15.77;9.65;;;;;;;-145.48;100.00;59605.97;6242901;23;20323;-80
2021/01/23 03:53:12;;;;;;;17.73;8.95;;;;;;;-145.48;100.00;59605.97;6217402;23;20066;-80
2021/01/23 03:55:37;;;;;;;14.02;9.95;;;;;;;-145.48;100.00;59605.97;6244734;23;20000;-80
2021/01/23 03:58:03;;;;;;;15.27;9.00;;;;;;;-145.48;100.00;59605.97;6247769;23;20014;-80
2021/01/23 04:00:28;;;;;;;15.10;9.68;;;;;;;-145.48;100.00;59605.97;6246166;23;20028;-80
2021/01/23 04:02:53;;;;;;;14.55;8.98;;;;;;;-145.48;100.00;59605.97;6245854;23;20052;-80
2021/01/23 04:05:19;;;;;;;16.75;9.65;;;;;;;-145.48;100.00;59605.97;6245506;22;20031;-80
2021/01/23 04:07:44;;;;;;;15.05;8.68;;;;;;;-145.48;100.00;59605.97;6216666;23;20003;-79
2021/01/23 04:10:10;;;;;;;17.25;8.43;;;;;;;-145.48;100.00;59605.97;6246018;23;20010;-79
2021/01/23 04:12:35;;;;;;;14.10;9.80;;;;;;;-145.48;100.00;59605.97;6245286;23;20027;-79
2021/01/23 04:15:01;;;;;;;12.02;8.40;;;;;;;-145.48;100.00;59605.97;6243274;23;20004;-80
2021/01/23 04:17:26;;;;;;;13.27;7.50;;;;;;;-145.48;100.00;59605.97;6243720;23;20507;-80
2021/01/23 04:19:52;;;;;;;18.52;8.57;;;;;;;-145.48;100.00;59605.97;6243240;23;20036;-80
2021/01/23 04:22:20;;;;;;;13.50;8.45;;;;;;;-145.48;100.00;59605.97;6243713;23;20011;-79
2021/01/23 04:24:45;;;;;;;16.52;7.18;;;;;;;-145.48;100.00;59605.97;6217777;23;20039;-80
2021/01/23 04:27:11;;;;;;;14.98;6.65;;;;;;;-145.48;100.00;59605.97;6219024;23;20038;-80
2021/01/23 04:29:36;;;;;;;9.68;6.72;;;;;;;-145.48;100.00;59605.97;6245994;23;20004;-80
2021/01/23 04:32:01;;;;;;;9.30;6.22;;;;;;;-145.48;100.00;59605.97;6246248;23;20478;-80
2021/01/23 04:34:26;;;;;;;10.80;6.72;;;;;;;-145.48;100.00;59605.97;6246241;23;20080;-81
2021/01/23 04:36:52;;;;;;;14.63;6.50;;;;;;;-145.48;100.00;59605.97;6217346;23;20012;-80
2021/01/23 04:39:17;;;;;;;12.95;6.75;;;;;;;-145.48;100.00;59605.97;6217263;23;20011;-80
2021/01/23 04:41:43;;;;;;;11.50;7.25;;;;;;;-145.48;100.00;59605.97;6243957;23;20399;-80
2021/01/23 04:44:08;;;;;;;14.50;6.55;;;;;;;-145.48;100.00;59605.97;6244011;23;20015;-80
2021/01/23 04:46:33;;;;;;;16.15;7.25;;;;;;;-145.48;100.00;59605.97;6219090;23;20007;-81
2021/01/23 04:48:59;;;;;;;15.45;8.10;;;;;;;-145.48;100.00;59605.97;6245872;23;20022;-81
2021/01/23 04:51:25;;;;;;;11.75;6.70;;;;;;;-145.48;100.00;59605.97;6246123;23;20385;-80
2021/01/23 04:53:51;;;;;;;13.55;5.65;;;;;;;-145.48;100.00;59605.97;6246571;23;20012;-80
2021/01/23 04:56:16;;;;;;;8.63;5.72;;;;;;;-145.48;100.00;59605.97;6248763;23;20042;-79
2021/01/23 04:58:43;;;;;;;7.47;6.00;;;;;;;-145.48;100.00;59605.97;6246313;23;20326;-80
2021/01/23 05:01:15;;;;;;;10.52;5.68;;;;;;;-145.48;100.00;59605.97;6219802;23;20011;-79
2021/01/23 05:03:54;;;;;;;9.55;5.55;;;;;;;-145.48;100.00;59605.97;6245966;22;20016;-79
2021/01/23 05:06:20;;;;;;;5.88;4.25;;;;;;;-145.48;100.00;59605.97;6216414;23;20004;-79
2021/01/23 05:08:45;;;;;;;10.27;4.78;;;;;;;-145.48;100.00;59605.97;6242396;23;20018;-80
2021/01/23 05:11:10;;;;;;;7.32;5.32;;;;;;;-145.48;100.00;59605.97;6215735;23;20046;-79
2021/01/23 05:13:36;;;;;;;12.30;6.03;;;;;;;-145.48;100.00;59605.97;6214753;23;20011;-79
2021/01/23 05:16:01;;;;;;;10.35;5.53;;;;;;;-145.48;100.00;59605.97;6244360;23;20680;-79
2021/01/23 05:18:26;;;;;;;7.75;4.70;;;;;;;-145.48;100.00;59605.97;6216132;23;20000;-79
2021/01/23 05:20:53;;;;;;;10.93;4.78;;;;;;;-145.48;100.00;59605.97;6242533;23;20022;-79
2021/01/23 05:23:25;;;;;;;8.95;5.07;;;;;;;-145.48;100.00;59605.97;6216330;23;20318;-79
2021/01/23 05:25:52;;;;;;;16.25;5.13;;;;;;;-145.48;100.00;59605.97;6243183;23;20008;-79
2021/01/23 05:28:29;;;;;;;16.85;6.93;;;;;;;-145.48;100.00;59605.97;6216062;23;20017;-79
2021/01/23 05:30:55;;;;;;;8.73;5.03;;;;;;;-145.48;100.00;59605.97;6243470;23;20000;-79
2021/01/23 05:33:28;;;;;;;9.02;4.55;;;;;;;-145.48;100.00;59605.97;6216306;23;20375;-80
2021/01/23 05:36:06;;;;;;;9.82;5.35;;;;;;;-145.48;100.00;59605.97;6216848;23;20442;-80
2021/01/23 05:38:39;;;;;;;10.23;4.75;;;;;;;-145.48;100.00;59605.97;6251468;23;20007;-80
2021/01/23 05:41:04;;;;;;;13.60;4.85;;;;;;;-145.48;100.00;59605.97;6247856;23;20031;-80
2021/01/23 05:43:43;;;;;;;9.55;4.93;;;;;;;-145.48;100.00;59605.97;6243915;23;20481;-80
2021/01/23 05:46:16;;;;;;;5.82;3.53;;;;;;;-145.48;100.00;59605.97;6215897;23;20090;-79
2021/01/23 05:48:44;;;;;;;7.35;4.72;;;;;;;-145.48;100.00;59605.97;6242312;23;20004;-79
2021/01/23 05:51:10;;;;;;;7.28;4.40;;;;;;;-145.48;100.00;59605.97;6242459;23;20004;-80
2021/01/23 05:53:36;;;;;;;10.75;4.55;;;;;;;-145.48;100.00;59605.97;6217239;23;20055;-80
2021/01/23 05:56:03;;;;;;;11.70;4.28;;;;;;;-145.48;100.00;59605.97;6247133;23;20031;-81
2021/01/23 05:58:33;;;;;;;8.23;3.95;;;;;;;-145.48;100.00;59605.97;6245296;23;20011;-80
2021/01/23 06:01:09;;;;;;;10.27;3.90;;;;;;;-145.48;100.00;59605.97;6245380;23;20004;-80
2021/01/23 06:03:41;;;;;;;5.70;3.35;;;;;;;-145.48;100.00;59605.97;6243809;23;20755;-80
2021/01/23 06:06:07;;;;;;;11.68;3.53;;;;;;;-145.48;100.00;59605.97;6243445;23;20338;-80
2021/01/23 06:08:46;;;;;;;6.78;3.03;;;;;;;-145.48;100.00;59605.97;6244233;23;20004;-80
2021/01/23 06:11:18;;;;;;;5.35;3.25;;;;;;;-145.48;100.00;59605.97;6244346;23;20011;-80
2021/01/23 06:13:45;;;;;;;5.88;3.05;;;;;;;-145.48;100.00;59605.97;6243632;23;20008;-80
2021/01/23 06:16:32;;;;;;;6.57;2.95;;;;;;;-145.48;100.00;59605.97;6245021;23;20487;-80
2021/01/23 06:19:06;;;;;;;5.70;3.10;;;;;;;-145.48;100.00;59605.97;6244677;23;20014;-81
2021/01/23 06:21:44;;;;;;;5.00;3.40;;;;;;;-145.48;100.00;59605.97;6245090;23;20715;-81
2021/01/23 06:24:17;;;;;;;10.00;3.47;;;;;;;-145.48;100.00;59605.97;6247366;23;20024;-80
2021/01/23 06:26:54;;;;;;;9.50;5.03;;;;;;;-145.48;100.00;59605.97;6245763;23;20079;-80
2021/01/23 06:29:32;;;;;;;11.75;4.35;;;;;;;-145.48;100.00;59605.97;6247325;23;19997;-80
2021/01/23 06:31:57;;;;;;;9.23;3.97;;;;;;;-145.48;100.00;59605.97;6216781;23;20323;-80
2021/01/23 06:34:25;;;;;;;8.40;4.10;;;;;;;-145.48;100.00;59605.97;6244671;23;20065;-80
2021/01/23 06:37:30;;;;;;;9.57;3.83;;;;;;;-145.48;100.00;59605.97;6244696;23;20383;-80
2021/01/23 06:39:58;;;;;;;6.97;4.75;;;;;;;-145.48;100.00;59605.97;6238470;23;20774;-80
2021/01/23 06:42:24;;;;;;;8.68;4.57;;;;;;;-145.48;100.00;59605.97;6245133;23;20019;-79
2021/01/23 06:44:49;;;;;;;8.45;4.68;;;;;;;-145.48;100.00;59605.97;6244981;23;20008;-80
2021/01/23 06:47:15;;;;;;;7.00;4.07;;;;;;;-145.48;100.00;59605.97;6243418;23;20403;-80
2021/01/23 06:49:41;;;;;;;11.25;4.25;;;;;;;-145.48;100.00;59605.97;6245767;23;20007;-79
2021/01/23 06:52:07;;;;;;;7.85;3.58;;;;;;;-145.48;100.00;59605.97;6243620;23;20018;-80
2021/01/23 06:54:33;;;;;;;8.57;3.90;;;;;;;-145.48;100.00;59605.97;6249356;23;20028;-79
2021/01/23 06:56:58;;;;;;;6.65;3.63;;;;;;;-145.48;100.00;59605.97;6244254;23;20008;-80
2021/01/23 06:59:35;;;;;;;8.45;3.95;;;;;;;-145.48;100.00;59605.97;6243710;23;20012;-79
2021/01/23 07:02:04;;;;;;;9.80;3.88;;;;;;;-145.48;100.00;59605.97;6242734;23;20004;-80
2021/01/23 07:04:43;;;;;;;6.05;3.35;;;;;;;-145.48;100.00;59605.97;6215905;23;20020;-79
2021/01/23 07:07:09;;;;;;;13.60;4.40;;;;;;;-145.48;100.00;59605.97;6217340;23;20004;-80
2021/01/23 07:09:50;;;;;;;10.68;3.05;;;;;;;-145.48;100.00;59605.97;6212017;23;20000;-80
2021/01/23 07:12:35;;;;;;;7.47;3.53;;;;;;;-145.48;100.00;59605.97;6212627;23;20009;-81
2021/01/23 07:15:05;;;;;;;9.65;3.22;;;;;;;-145.48;100.00;59605.97;6215766;23;20739;-81
2021/01/23 07:17:43;;;;;;;6.47;3.42;;;;;;;-145.48;100.00;59605.97;6216582;23;20082;-80
2021/01/23 07:20:11;;;;;;;8.75;3.95;;;;;;;-145.48;100.00;59605.97;6219309;23;20489;-80
2021/01/23 07:22:38;;;;;;;8.32;3.38;;;;;;;-145.48;100.00;59605.97;6223211;23;19997;-81
2021/01/23 07:25:05;;;;;;;11.63;4.20;;;;;;;-145.48;100.00;59605.97;6213298;23;20004;-81
2021/01/23 07:27:31;;;;;;;7.60;3.80;;;;;;;-145.48;100.00;59605.97;6213484;23;20004;-81
2021/01/23 07:29:56;;;;;;;8.00;3.78;;;;;;;-145.48;100.00;59605.97;6213553;23;20027;-80
2021/01/23 07:32:21;;;;;;;8.20;3.90;;;;;;;-145.48;100.00;59605.97;6215882;23;20005;-80
2021/01/23 07:34:59;;;;;;;8.32;3.38;;;;;;;-145.48;100.00;59605.97;6214014;23;20062;-81
2021/01/23 07:37:53;;;;;;;8.07;4.63;;;;;;;-145.48;100.00;59605.97;6213735;23;20019;-80
2021/01/23 07:40:38;;;;;;;7.82;3.40;;;;;;;-145.48;100.00;59605.97;6209752;23;20414;-80
2021/01/23 07:43:05;;;;;;;5.85;3.08;;;;;;;-145.48;100.00;59605.97;6212366;23;20009;-80
2021/01/23 07:45:31;;;;;;;11.90;4.13;;;;;;;-145.48;100.00;59605.97;6212600;23;20066;-80
2021/01/23 07:48:06;;;;;;;10.85;3.60;;;;;;;-145.48;100.00;59605.97;6210220;23;20009;-80
2021/01/23 07:50:43;;;;;;;12.25;4.72;;;;;;;-145.48;100.00;59605.97;6210708;23;20005;-80
2021/01/23 07:53:15;;;;;;;10.43;3.95;;;;;;;-145.48;100.00;59605.97;6212534;23;20008;-81
2021/01/23 07:55:41;;;;;;;18.58;3.78;;;;;;;-145.48;100.00;59605.97;6211968;23;20008;-80
2021/01/23 07:58:08;;;;;;;5.80;3.70;;;;;;;-145.48;100.00;59605.97;6212452;23;20009;-80
2021/01/23 08:00:33;;;;;;;7.38;2.63;;;;;;;-145.48;100.00;59605.97;6208194;23;20014;-80
2021/01/23 08:02:59;;;;;;;11.77;4.75;;;;;;;-145.48;100.00;59605.97;6210251;23;20008;-79
2021/01/23 08:05:55;;;;;;;13.35;4.80;;;;;;;-145.48;100.00;59605.97;6238253;23;20031;-80
2021/01/23 08:08:37;;;;;;;5.30;2.97;;;;;;;-145.48;100.00;59605.97;6242630;23;20081;-80
2021/01/23 08:11:04;;;;;;;8.27;3.45;;;;;;;-145.48;100.00;59605.97;6243059;23;20079;-81
2021/01/23 08:13:31;;;;;;;9.80;4.07;;;;;;;-145.48;100.00;59605.97;6243403;23;20318;-79
2021/01/23 08:16:16;;;;;;;10.15;4.88;;;;;;;-145.48;100.00;59605.97;6243232;23;20331;-79
2021/01/23 08:18:43;;;;;;;12.73;4.57;;;;;;;-145.48;100.00;59605.97;6240937;23;20007;-79
2021/01/23 08:21:18;;;;;;;7.18;3.40;;;;;;;-145.48;100.00;59605.97;6242561;23;20410;-80
2021/01/23 08:23:43;;;;;;;6.30;3.70;;;;;;;-145.48;100.00;59605.97;6242956;23;20015;-79
2021/01/23 08:26:08;;;;;;;12.63;4.47;;;;;;;-145.48;100.00;59605.97;6230108;23;20008;-80
2021/01/23 08:28:42;;;;;;;9.15;4.25;;;;;;;-145.48;100.00;59605.97;6241009;23;20047;-80
2021/01/23 08:31:23;;;;;;;8.70;3.63;;;;;;;-145.48;100.00;59605.97;6215773;23;20007;-79
2021/01/23 08:33:54;;;;;;;9.35;3.60;;;;;;;-145.48;100.00;59605.97;6243975;23;20008;-80
2021/01/23 08:36:20;;;;;;;17.90;4.60;;;;;;;-145.48;100.00;59605.97;6242350;23;20004;-79
2021/01/23 08:38:46;;;;;;;10.18;4.65;;;;;;;-145.48;100.00;59605.97;6214989;23;20003;-80
2021/01/23 08:41:11;;;;;;;10.60;3.67;;;;;;;-145.48;100.00;59605.97;6242502;23;20008;-79
2021/01/23 08:43:36;;;;;;;7.25;4.03;;;;;;;-145.48;100.00;59605.97;6216150;23;20008;-79
2021/01/23 08:46:02;;;;;;;11.27;3.55;;;;;;;-145.48;100.00;59605.97;6242385;23;20004;-79
2021/01/23 08:48:28;;;;;;;9.50;3.63;;;;;;;-145.48;100.00;59605.97;6243336;23;20000;-79
2021/01/23 08:50:53;;;;;;;8.55;3.65;;;;;;;-145.48;100.00;59605.97;6216151;23;20137;-79
2021/01/23 08:53:18;;;;;;;6.18;3.72;;;;;;;-145.48;100.00;59605.97;6242885;23;20008;-79
2021/01/23 08:55:44;;;;;;;4.55;3.20;;;;;;;-145.48;100.00;59605.97;6242716;23;20000;-79
2021/01/23 08:58:09;;;;;;;7.72;4.07;;;;;;;-145.48;100.00;59605.97;6243737;23;20015;-79
2021/01/23 09:00:34;;;;;;;6.68;3.33;;;;;;;-145.48;100.00;59605.97;6213167;23;20000;-79
2021/01/23 09:03:00;;;;;;;8.48;3.53;;;;;;;-145.48;100.00;59605.97;6241587;23;20003;-79
2021/01/23 09:05:26;;;;;;;9.02;3.42;;;;;;;-145.48;100.00;59605.97;6242800;22;20070;-80
2021/01/23 09:07:51;;;;;;;12.52;3.58;;;;;;;-145.48;100.00;59605.97;6243726;23;20008;-79
2021/01/23 09:10:17;;;;;;;8.77;3.85;;;;;;;-145.48;100.00;59605.97;6242476;23;20015;-80
2021/01/23 09:12:43;;;;;;;12.30;4.05;;;;;;;-145.48;100.00;59605.97;6216169;23;20342;-80
2021/01/23 09:15:09;;;;;;;10.65;4.00;;;;;;;-145.48;100.00;59605.97;6218856;23;20000;-80
2021/01/23 09:17:34;;;;;;;10.65;3.75;;;;;;;-145.48;100.00;59605.97;6218631;23;20035;-80
2021/01/23 09:20:00;;;;;;;8.65;3.15;;;;;;;-145.48;100.00;59605.97;6247153;23;20063;-81
2021/01/23 09:22:25;;;;;;;6.10;3.20;;;;;;;-145.48;100.00;59605.97;6247775;23;20031;-80
2021/01/23 09:24:50;;;;;;;9.43;4.10;;;;;;;-145.48;100.00;59605.97;6245479;23;20000;-80
2021/01/23 09:27:16;;;;;;;9.50;3.60;;;;;;;-145.48;100.00;59605.97;6243605;23;20008;-80
2021/01/23 09:29:42;;;;;;;13.27;3.67;;;;;;;-145.48;100.00;59605.97;6243795;23;20004;-80
2021/01/23 09:32:07;;;;;;;16.98;3.65;;;;;;;-145.48;100.00;59605.97;6217081;23;20056;-80
2021/01/23 09:34:34;;;;;;;8.27;3.28;;;;;;;-145.48;100.00;59605.97;6243996;23;20010;-80
2021/01/23 09:37:01;;;;;;;11.52;3.63;;;;;;;-145.48;100.00;59605.97;6243718;23;20039;-80
2021/01/23 09:39:31;;;;;;;7.13;3.13;;;;;;;-145.48;100.00;59605.97;6244128;23;20095;-80
2021/01/23 09:41:59;;;;;;;10.57;3.22;;;;;;;-145.48;100.00;59605.97;6244282;23;20052;-80
2021/01/23 09:44:24;;;;;;;10.15;3.25;;;;;;;-145.48;100.00;59605.97;6244776;23;20016;-80
2021/01/23 09:46:50;;;;;;;12.18;4.18;;;;;;;-145.48;100.00;59605.97;6217025;23;20042;-80
2021/01/23 09:49:16;;;;;;;7.15;3.42;;;;;;;-145.48;100.00;59605.97;6247214;23;20035;-80
2021/01/23 09:51:41;;;;;;;10.57;3.22;;;;;;;-145.48;100.00;59605.97;6217440;23;20103;-81
2021/01/23 09:54:07;;;;;;;8.73;3.13;;;;;;;-145.48;100.00;59605.97;6244930;23;20008;-80
2021/01/23 09:56:32;;;;;;;8.00;2.25;;;;;;;-145.48;100.00;59605.97;6243712;23;20003;-79
2021/01/23 09:58:57;;;;;;;6.07;2.90;;;;;;;-145.48;100.00;59605.97;6216812;23;20012;-79
2021/01/23 10:01:22;;;;;;;9.88;3.05;;;;;;;-145.48;100.00;59605.97;6243452;23;20007;-80
2021/01/23 10:03:50;;;;;;;9.68;2.65;;;;;;;-145.48;100.00;59605.97;6243654;23;20039;-80
2021/01/23 10:06:15;;;;;;;11.52;2.92;;;;;;;-145.48;100.00;59605.97;6243489;23;20434;-80
2021/01/23 10:08:41;;;;;;;4.25;2.75;;;;;;;-145.48;100.00;59605.97;6216757;23;20008;-80
2021/01/23 10:11:06;;;;;;;10.48;3.80;;;;;;;-145.48;100.00;59605.97;6243520;23;20032;-80
2021/01/23 10:13:31;;;;;;;12.65;3.20;;;;;;;-145.48;100.00;59605.97;6244158;23;20012;-80
2021/01/23 10:15:56;;;;;;;6.55;2.42;;;;;;;-145.48;100.00;59605.97;6216857;23;20014;-79
2021/01/23 10:18:22;;;;;;;11.57;2.65;;;;;;;-145.48;100.00;59605.97;6242924;23;20717;-79
2021/01/23 10:20:47;;;;;;;5.75;2.72;;;;;;;-145.48;100.00;59605.97;6243895;23;20011;-80
2021/01/23 10:23:12;;;;;;;8.05;3.10;;;;;;;-145.48;100.00;59605.97;6242859;23;20000;-80
2021/01/23 10:25:38;;;;;;;6.25;3.53;;;;;;;-145.48;100.00;59605.97;6243579;23;20000;-79
2021/01/23 10:28:04;;;;;;;6.95;3.00;;;;;;;-145.48;100.00;59605.97;6218237;23;20008;-80
2021/01/23 10:30:29;;;;;;;10.02;3.33;;;;;;;-145.48;100.00;59605.97;6216464;23;20000;-79
2021/01/23 10:32:54;;;;;;;5.65;3.20;;;;;;;-145.48;100.00;59605.97;6216128;23;20019;-80
2021/01/23 10:35:20;;;;;;;10.20;3.20;;;;;;;-145.48;100.00;59605.97;6242773;23;20095;-80
2021/01/23 10:37:45;;;;;;;8.80;2.70;;;;;;;-145.48;100.00;59605.97;6216422;23;20209;-79
2021/01/23 10:40:11;;;;;;;9.30;2.70;;;;;;;-145.48;100.00;59605.97;6243905;23;20008;-80
2021/01/23 10:42:36;;;;;;;5.95;3.53;;;;;;;-145.48;100.00;59605.97;6244383;23;20026;-81
2021/01/23 10:45:04;;;;;;;6.60;3.03;;;;;;;-145.48;100.00;59605.97;6244908;23;20043;-80
2021/01/23 10:47:29;;;;;;;9.05;3.40;;;;;;;-145.48;100.00;59605.97;6217753;23;20563;-81
2021/01/23 10:49:54;;;;;;;5.22;2.83;;;;;;;-145.48;100.00;59605.97;6242622;23;20078;-80
2021/01/23 10:52:19;;;;;;;7.00;2.75;;;;;;;-145.48;100.00;59605.97;6244412;23;20006;-80
2021/01/23 10:54:45;;;;;;;8.27;3.28;;;;;;;-145.48;100.00;59605.97;6217394;23;20708;-80
2021/01/23 10:57:10;;;;;;;8.23;2.75;;;;;;;-145.48;100.00;59605.97;6220401;23;20019;-80
2021/01/23 10:59:36;;;;;;;9.02;3.00;;;;;;;-145.48;100.00;59605.97;6243826;23;20015;-80
2021/01/23 11:02:01;;;;;;;7.55;3.03;;;;;;;-145.48;100.00;59605.97;6243908;23;20362;-80
2021/01/23 11:04:26;;;;;;;12.23;3.70;;;;;;;-145.48;100.00;59605.97;6244057;22;20016;-79
2021/01/23 11:06:52;;;;;;;6.47;3.65;;;;;;;-145.48;100.00;59605.97;6242605;23;20650;-80
2021/01/23 11:09:17;;;;;;;7.88;3.13;;;;;;;-145.48;100.00;59605.97;6243243;23;20000;-79